< Typhoon 202012 2020 Season Typhoon 202014 >
Typhoon 202013 (KUJIRA)
General InformationTrack Information on Google MapsDetailed Wind InformationForecast History on Google MapsAccess Analytics MapList of All Images || NewsDisaster Info.WeblogTrackbackTyphoon FrontTwiphoonTyphoon Now!Typhoon ImaginationJMA Disaster Info. XMLResourceGoogle EarthGE AnimationAtom FeedGeoJSON
Detalied Best Track (Time Zone = UTC)
Year Month Day Hour Lat. Long. Pressure (hPa) Wind (kt) Class Image Chart
2020 9 25 12 16.6 158.7 1008 0 2 Image Chart
2020 9 25 18 17.2 158.6 1006 0 2 Image Chart
2020 9 26 00 17.9 158.9 1008 0 2 Image Chart
2020 9 26 06 18.6 159.3 1006 0 2 Image Chart
2020 9 26 12 19.3 159.5 1004 0 2 Image Chart
2020 9 26 18 20.0 159.3 1002 35 3 Image Chart
2020 9 27 00 20.7 158.7 1002 35 3 Image Chart
2020 9 27 06 21.9 157.6 1000 35 3 Image Chart
2020 9 27 12 23.3 156.3 998 40 3 Image Chart
2020 9 27 18 24.9 154.9 996 40 3 Image Chart
2020 9 28 00 26.4 153.6 992 45 3 Image Chart
2020 9 28 06 27.7 153.1 990 50 4 Image Chart
2020 9 28 12 28.7 152.9 985 55 4 Image Chart
2020 9 28 18 30.5 153.1 985 55 4 Image Chart
2020 9 29 00 32.6 153.8 980 60 4 Image Chart
2020 9 29 06 34.7 154.9 980 60 4 Image Chart
2020 9 29 12 36.6 156.4 980 60 4 Image Chart
2020 9 29 18 38.6 158.4 985 55 4 Image Chart
2020 9 30 00 40.0 160.7 990 50 4 Image Chart
2020 9 30 06 41.0 163.0 996 0 6 Image Chart
2020 9 30 12 41.2 166.2 1000 0 6 Image Chart
2020 9 30 18 41.1 169.2 1000 0 6 Image Chart
2020 10 1 00 40.4 172.1 1004 0 6 Image Chart
2020 10 1 06 39.6 175.4 1004 0 6 Image Chart
2020 10 1 12 38.4 177.8 1006 0 6 Image Chart
2020 10 1 18 37.1 180.4 1006 0 6 Image Chart
Japan Meteorological Agency Best Track Data | Correction Date : 2020-12-24
< Typhoon 202012 2020 Season Typhoon 202014 >

Help